createdAt,value
2023-11-08T00:00:56.561Z,10.94
2023-11-08T00:01:55.748Z,11.09
2023-11-08T00:02:52.798Z,11.28
2023-11-08T00:03:49.626Z,11.57
2023-11-08T00:04:46.363Z,11.60
2023-11-08T00:05:43.093Z,11.40
2023-11-08T00:06:40.420Z,11.43
2023-11-08T00:07:37.337Z,11.38
2023-11-08T00:08:34.017Z,11.43
2023-11-08T00:09:30.753Z,11.34
2023-11-08T00:10:27.893Z,11.36
2023-11-08T00:11:24.911Z,11.63
2023-11-08T00:12:21.800Z,11.59
2023-11-08T00:13:21.481Z,11.71
2023-11-08T00:14:18.170Z,11.55
2023-11-08T00:15:15.001Z,11.54
2023-11-08T00:16:12.769Z,11.41
2023-11-08T00:17:09.548Z,11.16
2023-11-08T00:18:07.024Z,11.24
2023-11-08T00:19:04.274Z,11.26
2023-11-08T00:20:00.948Z,11.19
2023-11-08T00:20:57.591Z,11.07
2023-11-08T00:21:54.296Z,10.85
2023-11-08T00:22:51.002Z,10.76
2023-11-08T00:23:47.601Z,10.84
2023-11-08T00:24:44.458Z,10.81
2023-11-08T00:25:41.163Z,10.79
2023-11-08T00:26:37.777Z,10.91
2023-11-08T00:27:34.562Z,11.24
2023-11-08T00:28:31.251Z,10.90
2023-11-08T00:29:28.693Z,11.10
2023-11-08T00:30:25.443Z,11.28
2023-11-08T00:31:22.059Z,11.28
2023-11-08T00:32:22.881Z,11.35
2023-11-08T00:33:19.833Z,11.23
2023-11-08T00:34:17.624Z,11.20
2023-11-08T00:35:14.919Z,11.06
2023-11-08T00:36:11.583Z,10.95
2023-11-08T00:37:10.561Z,11.02
2023-11-08T00:38:07.310Z,10.99
2023-11-08T00:39:06.921Z,11.13
2023-11-08T00:40:05.492Z,11.19
2023-11-08T00:41:02.135Z,11.12
2023-11-08T00:41:58.809Z,10.98
2023-11-08T00:42:55.707Z,11.03
2023-11-08T00:43:57.435Z,11.14
2023-11-08T00:44:54.149Z,11.38
2023-11-08T00:45:51.832Z,11.49
2023-11-08T00:46:48.514Z,11.38
2023-11-08T00:47:45.417Z,11.36
2023-11-08T00:48:42.833Z,11.19
2023-11-08T00:49:39.511Z,11.15
2023-11-08T00:50:36.180Z,11.29
2023-11-08T00:51:33.419Z,11.46
2023-11-08T00:52:30.182Z,11.63
2023-11-08T00:53:26.903Z,11.70
2023-11-08T00:54:23.681Z,11.76
2023-11-08T00:55:20.516Z,11.68
2023-11-08T00:56:17.610Z,11.51
2023-11-08T00:57:14.291Z,11.42
2023-11-08T00:58:11.094Z,11.43
2023-11-08T00:59:07.770Z,11.46
2023-11-08T01:00:09.129Z,11.35
2023-11-08T01:01:06.967Z,11.23
2023-11-08T01:02:04.633Z,11.26
2023-11-08T01:03:01.987Z,11.30
2023-11-08T01:03:59.128Z,11.12
2023-11-08T01:04:56.147Z,11.23
2023-11-08T01:05:52.939Z,11.50
2023-11-08T01:06:49.689Z,11.33
2023-11-08T01:07:46.471Z,11.18
2023-11-08T01:08:43.221Z,10.78
2023-11-08T01:09:39.952Z,10.68
2023-11-08T01:10:39.561Z,10.60
2023-11-08T01:11:37.071Z,10.88
2023-11-08T01:12:35.130Z,10.93
2023-11-08T01:13:32.628Z,11.13
2023-11-08T01:14:29.715Z,10.78
2023-11-08T01:15:26.647Z,9.64
2023-11-08T01:16:23.349Z,9.17
2023-11-08T01:17:20.176Z,8.85
2023-11-08T01:18:17.683Z,9.07
2023-11-08T01:19:15.039Z,9.43
2023-11-08T01:20:12.525Z,9.15
2023-11-08T01:21:09.284Z,8.96
2023-11-08T01:22:06.799Z,9.13
2023-11-08T01:23:04.263Z,9.36
2023-11-08T01:24:01.767Z,8.99
2023-11-08T01:24:58.483Z,9.19
2023-11-08T01:25:55.400Z,9.12
2023-11-08T01:26:52.108Z,8.88
2023-11-08T01:27:48.984Z,9.16
2023-11-08T01:28:46.428Z,9.38
2023-11-08T01:29:43.201Z,9.58
2023-11-08T01:30:40.137Z,10.06
2023-11-08T01:31:36.801Z,10.22
2023-11-08T01:32:33.560Z,10.41
2023-11-08T01:33:30.616Z,10.38
2023-11-08T01:34:27.426Z,9.72
2023-11-08T01:35:24.243Z,9.65
2023-11-08T01:36:21.008Z,9.88
2023-11-08T01:37:17.847Z,10.14
2023-11-08T01:38:14.496Z,10.15
2023-11-08T01:39:11.289Z,10.33
2023-11-08T01:40:09.341Z,10.60
2023-11-08T01:41:06.170Z,10.99
2023-11-08T01:42:03.396Z,11.14
2023-11-08T01:43:00.127Z,10.64
2023-11-08T01:44:01.292Z,10.12
2023-11-08T01:44:58.011Z,10.42
2023-11-08T01:46:05.254Z,10.67
2023-11-08T01:47:04.058Z,10.70
2023-11-08T01:48:00.872Z,10.78
2023-11-08T01:49:00.172Z,10.59
2023-11-08T01:49:57.043Z,10.47
2023-11-08T01:50:53.866Z,10.58
2023-11-08T01:51:50.998Z,10.69
2023-11-08T01:52:47.882Z,11.04
2023-11-08T01:53:44.812Z,11.45
2023-11-08T01:54:46.564Z,11.51
2023-11-08T01:55:43.738Z,11.36
2023-11-08T01:56:45.538Z,10.95
2023-11-08T01:57:42.605Z,10.67
2023-11-08T01:58:39.881Z,10.14
2023-11-08T01:59:37.002Z,10.13
2023-11-08T02:00:36.807Z,10.44
2023-11-08T02:01:33.603Z,10.64
2023-11-08T02:02:30.398Z,10.69
2023-11-08T02:03:28.998Z,10.63
2023-11-08T02:04:27.702Z,10.24
2023-11-08T02:05:25.819Z,10.38
2023-11-08T02:06:23.225Z,10.57
2023-11-08T02:07:19.931Z,10.94
2023-11-08T02:08:19.926Z,11.35
2023-11-08T02:09:18.208Z,11.09
2023-11-08T02:10:15.725Z,10.74
2023-11-08T02:11:14.216Z,10.84
2023-11-08T02:12:12.892Z,11.10
2023-11-08T02:13:09.712Z,11.11
2023-11-08T02:14:06.709Z,10.59
2023-11-08T02:15:05.302Z,10.46
2023-11-08T02:16:03.181Z,10.77
2023-11-08T02:16:59.883Z,10.98
2023-11-08T02:17:56.608Z,10.82
2023-11-08T02:18:53.369Z,11.09
2023-11-08T02:19:50.124Z,11.33
2023-11-08T02:20:47.109Z,11.32
2023-11-08T02:21:43.804Z,11.33
2023-11-08T02:22:40.472Z,11.38
2023-11-08T02:23:37.716Z,11.41
2023-11-08T02:24:34.502Z,11.48
2023-11-08T02:25:31.636Z,11.38
2023-11-08T02:26:28.308Z,11.29
2023-11-08T02:27:25.021Z,11.34
2023-11-08T02:28:22.510Z,11.28
2023-11-08T02:29:21.373Z,11.27
2023-11-08T02:30:18.716Z,11.28
2023-11-08T02:31:17.119Z,11.09
2023-11-08T02:32:13.823Z,11.07
2023-11-08T02:33:10.796Z,10.91
2023-11-08T02:34:10.851Z,11.03
2023-11-08T02:35:07.995Z,11.01
2023-11-08T02:36:05.250Z,10.86
2023-11-08T02:37:02.118Z,10.73
2023-11-08T02:37:58.758Z,10.57
2023-11-08T02:38:57.108Z,10.46
2023-11-08T02:39:54.029Z,10.38
2023-11-08T02:40:50.872Z,10.29
2023-11-08T02:41:48.994Z,10.48
2023-11-08T02:42:47.074Z,10.89
2023-11-08T02:43:45.063Z,11.17
2023-11-08T02:44:41.718Z,11.24
2023-11-08T02:45:38.849Z,11.18
2023-11-08T02:46:36.361Z,10.64
2023-11-08T02:47:33.096Z,10.57
2023-11-08T02:48:30.042Z,10.45
2023-11-08T02:49:32.476Z,10.64
2023-11-08T02:50:29.761Z,10.78
2023-11-08T02:51:29.862Z,10.49
2023-11-08T02:52:26.895Z,10.19
2023-11-08T02:53:23.645Z,10.24
2023-11-08T02:54:20.327Z,10.11
2023-11-08T02:55:17.103Z,10.60
2023-11-08T02:56:14.270Z,11.01
2023-11-08T02:57:10.995Z,11.21
2023-11-08T02:58:07.816Z,11.06
2023-11-08T02:59:04.534Z,10.70
2023-11-08T03:00:04.929Z,10.59
2023-11-08T03:01:01.608Z,10.66
2023-11-08T03:01:58.755Z,10.77
2023-11-08T03:02:56.224Z,10.95
2023-11-08T03:03:52.998Z,10.97
2023-11-08T03:04:49.884Z,11.19
2023-11-08T03:05:46.715Z,11.35
2023-11-08T03:06:44.985Z,11.23
2023-11-08T03:07:43.259Z,11.36
2023-11-08T03:08:40.041Z,11.10
2023-11-08T03:09:36.805Z,10.90
2023-11-08T03:10:35.793Z,11.06
2023-11-08T03:11:32.434Z,10.75
2023-11-08T03:12:30.171Z,10.80
2023-11-08T03:13:27.118Z,11.03
2023-11-08T03:14:23.953Z,11.03
2023-11-08T03:15:24.978Z,11.07
2023-11-08T03:16:22.321Z,10.41
2023-11-08T03:17:19.621Z,10.48
2023-11-08T03:18:19.159Z,10.37
2023-11-08T03:19:15.972Z,10.69
2023-11-08T03:20:16.914Z,10.91
2023-11-08T03:21:13.626Z,10.75
2023-11-08T03:22:13.944Z,10.66
2023-11-08T03:23:10.664Z,10.66
2023-11-08T03:24:07.641Z,10.61
2023-11-08T03:25:04.589Z,10.75
2023-11-08T03:26:01.241Z,10.86
2023-11-08T03:26:58.009Z,10.86
2023-11-08T03:27:54.646Z,10.97
2023-11-08T03:28:51.347Z,11.29
2023-11-08T03:29:48.006Z,11.39
2023-11-08T03:30:45.266Z,11.39
2023-11-08T03:31:41.917Z,11.04
2023-11-08T03:32:38.712Z,10.86
2023-11-08T03:33:37.004Z,11.19
2023-11-08T03:34:34.503Z,11.21
2023-11-08T03:35:31.223Z,10.65
2023-11-08T03:36:30.193Z,10.76
2023-11-08T03:37:27.018Z,11.03
2023-11-08T03:38:23.639Z,11.02
2023-11-08T03:39:20.504Z,11.02
2023-11-08T03:40:18.636Z,10.95
2023-11-08T03:41:16.014Z,10.72
2023-11-08T03:42:12.714Z,10.62
2023-11-08T03:43:09.413Z,10.84
2023-11-08T03:44:06.994Z,10.71
2023-11-08T03:45:05.362Z,10.82
2023-11-08T03:46:02.071Z,10.74
2023-11-08T03:46:58.891Z,10.60
2023-11-08T03:47:55.595Z,10.53
2023-11-08T03:48:56.216Z,10.72
2023-11-08T03:49:53.001Z,11.04
2023-11-08T03:50:49.678Z,10.82
2023-11-08T03:51:46.337Z,10.92
2023-11-08T03:52:43.115Z,10.67
2023-11-08T03:53:39.827Z,10.74
2023-11-08T03:54:36.605Z,11.05
2023-11-08T03:55:34.170Z,11.07
2023-11-08T03:56:31.318Z,10.91
2023-11-08T03:57:29.521Z,10.69
2023-11-08T03:58:26.410Z,10.78
2023-11-08T03:59:23.100Z,11.07
2023-11-08T04:00:19.990Z,11.09
2023-11-08T04:01:17.545Z,10.93
2023-11-08T04:02:14.263Z,10.91
2023-11-08T04:03:10.919Z,10.80
2023-11-08T04:04:07.605Z,10.80
2023-11-08T04:05:04.792Z,10.60
2023-11-08T04:06:01.773Z,10.63
2023-11-08T04:06:58.645Z,10.53
2023-11-08T04:07:55.301Z,10.67
2023-11-08T04:08:52.035Z,10.71
2023-11-08T04:09:49.340Z,10.77
2023-11-08T04:10:46.124Z,10.79
2023-11-08T04:11:42.802Z,10.71
2023-11-08T04:12:39.626Z,10.70
2023-11-08T04:13:36.359Z,10.89
2023-11-08T04:14:32.994Z,10.93
2023-11-08T04:15:31.103Z,11.00
2023-11-08T04:16:27.851Z,11.21
2023-11-08T04:17:24.951Z,11.33
2023-11-08T04:18:21.698Z,11.28
2023-11-08T04:19:18.344Z,11.41
2023-11-08T04:20:15.840Z,11.43
2023-11-08T04:21:12.528Z,11.41
2023-11-08T04:22:11.014Z,11.33
2023-11-08T04:23:07.883Z,11.44
2023-11-08T04:24:04.935Z,11.55
2023-11-08T04:25:01.542Z,11.64
2023-11-08T04:25:58.215Z,11.65
2023-11-08T04:26:54.920Z,11.76
2023-11-08T04:27:51.667Z,11.74
2023-11-08T04:28:48.368Z,11.70
2023-11-08T04:29:45.034Z,11.63
2023-11-08T04:30:41.661Z,11.75
2023-11-08T04:31:38.317Z,11.74
2023-11-08T04:32:35.114Z,11.72
2023-11-08T04:33:31.964Z,11.81
2023-11-08T04:34:29.943Z,11.94
2023-11-08T04:35:26.664Z,11.87
2023-11-08T04:36:23.375Z,11.86
2023-11-08T04:37:20.167Z,11.70
2023-11-08T04:38:16.930Z,11.82
2023-11-08T04:39:17.115Z,11.82
2023-11-08T04:40:13.940Z,11.94
2023-11-08T04:41:13.709Z,11.90
2023-11-08T04:42:10.482Z,11.96
2023-11-08T04:43:07.428Z,11.92
2023-11-08T04:44:04.441Z,12.00
2023-11-08T04:45:01.160Z,12.08
2023-11-08T04:45:57.849Z,12.07
2023-11-08T04:46:54.500Z,12.08
2023-11-08T04:47:51.258Z,12.13
2023-11-08T04:48:48.294Z,12.22
2023-11-08T04:49:49.313Z,12.33
2023-11-08T04:50:45.989Z,12.29
2023-11-08T04:51:42.928Z,12.29
2023-11-08T04:52:40.181Z,12.20
2023-11-08T04:53:36.870Z,12.25
2023-11-08T04:54:43.921Z,12.51
2023-11-08T04:55:44.622Z,12.42
2023-11-08T04:56:42.743Z,12.44
2023-11-08T04:57:39.446Z,12.41
2023-11-08T04:58:36.125Z,12.50
2023-11-08T04:59:34.113Z,12.48
2023-11-08T05:00:30.744Z,12.46
2023-11-08T05:01:29.706Z,12.74
2023-11-08T05:02:26.865Z,12.71
2023-11-08T05:03:24.020Z,12.84
2023-11-08T05:04:20.733Z,12.84
2023-11-08T05:05:17.493Z,12.70
2023-11-08T05:06:14.203Z,12.88
2023-11-08T05:07:10.969Z,12.90
2023-11-08T05:08:07.696Z,12.88
2023-11-08T05:09:04.441Z,12.79
2023-11-08T05:10:01.233Z,12.66
2023-11-08T05:10:57.987Z,12.65
2023-11-08T05:11:54.729Z,12.75
2023-11-08T05:12:52.607Z,12.99
2023-11-08T05:13:49.948Z,12.93
2023-11-08T05:14:47.183Z,13.08
2023-11-08T05:15:44.397Z,13.11
2023-11-08T05:16:41.104Z,13.08
2023-11-08T05:17:38.828Z,13.05
2023-11-08T05:18:35.698Z,13.03
2023-11-08T05:19:33.027Z,12.97
2023-11-08T05:20:30.929Z,13.21
2023-11-08T05:21:27.913Z,13.29
2023-11-08T05:22:24.964Z,13.22
2023-11-08T05:23:21.695Z,13.27
2023-11-08T05:24:18.909Z,13.26
2023-11-08T05:25:16.597Z,13.16
2023-11-08T05:26:13.402Z,12.98
2023-11-08T05:27:12.906Z,13.17
2023-11-08T05:28:09.987Z,13.25
2023-11-08T05:29:06.742Z,13.19
2023-11-08T05:30:06.060Z,13.04
2023-11-08T05:31:02.808Z,13.16
2023-11-08T05:32:00.278Z,13.09
2023-11-08T05:32:57.237Z,13.14
2023-11-08T05:33:54.276Z,13.40
2023-11-08T05:34:51.240Z,13.28
2023-11-08T05:35:47.936Z,13.30
2023-11-08T05:36:44.649Z,13.34
2023-11-08T05:37:44.113Z,13.47
2023-11-08T05:38:41.181Z,13.51
2023-11-08T05:39:37.905Z,13.37
2023-11-08T05:40:35.636Z,13.16
2023-11-08T05:41:32.463Z,13.29
2023-11-08T05:42:29.652Z,13.32
2023-11-08T05:43:27.040Z,13.27
2023-11-08T05:44:25.639Z,13.04
2023-11-08T05:45:22.915Z,13.08
2023-11-08T05:46:19.628Z,13.04
2023-11-08T05:47:16.439Z,12.93
2023-11-08T05:48:13.180Z,13.07
2023-11-08T05:49:10.249Z,13.18
2023-11-08T05:50:11.228Z,13.19
2023-11-08T05:51:07.924Z,13.29
2023-11-08T05:52:04.913Z,13.31
2023-11-08T05:53:01.778Z,13.20
2023-11-08T05:53:58.525Z,13.10
2023-11-08T05:54:55.812Z,13.07
2023-11-08T05:55:52.520Z,13.02
2023-11-08T05:56:49.416Z,13.03
2023-11-08T05:57:46.216Z,13.16
2023-11-08T05:58:42.941Z,13.23
2023-11-08T05:59:42.283Z,13.58
2023-11-08T06:00:38.976Z,13.77
2023-11-08T06:01:35.643Z,13.86
2023-11-08T06:02:32.386Z,13.76
2023-11-08T06:03:29.395Z,13.79
2023-11-08T06:04:26.389Z,13.68
2023-11-08T06:05:23.741Z,13.76
2023-11-08T06:06:21.314Z,13.48
2023-11-08T06:07:18.185Z,13.47
2023-11-08T06:08:14.863Z,13.40
2023-11-08T06:09:14.529Z,13.41
2023-11-08T06:10:13.071Z,13.29
2023-11-08T06:11:09.888Z,13.08
2023-11-08T06:12:07.412Z,13.16
2023-11-08T06:13:04.141Z,13.28
2023-11-08T06:14:00.922Z,13.37
2023-11-08T06:14:57.607Z,13.18
2023-11-08T06:15:54.384Z,13.37
2023-11-08T06:16:53.174Z,13.35
2023-11-08T06:17:53.784Z,13.50
2023-11-08T06:18:50.715Z,13.47
2023-11-08T06:19:48.737Z,13.41
2023-11-08T06:20:45.437Z,13.46
2023-11-08T06:21:42.225Z,13.67
2023-11-08T06:22:39.382Z,13.72
2023-11-08T06:23:37.102Z,13.59
2023-11-08T06:24:33.811Z,13.48
2023-11-08T06:25:31.553Z,13.66
2023-11-08T06:26:28.535Z,13.54
2023-11-08T06:27:25.224Z,13.29
2023-11-08T06:28:22.105Z,13.46
2023-11-08T06:29:18.775Z,13.55
2023-11-08T06:30:17.144Z,13.49
2023-11-08T06:31:14.678Z,13.46
2023-11-08T06:32:11.368Z,13.50
2023-11-08T06:33:09.003Z,13.54
2023-11-08T06:34:05.826Z,13.62
2023-11-08T06:35:03.856Z,13.51
2023-11-08T06:36:01.006Z,13.57
2023-11-08T06:36:58.858Z,13.49
2023-11-08T06:37:55.598Z,13.37
2023-11-08T06:38:52.362Z,13.34
2023-11-08T06:39:49.177Z,13.40
2023-11-08T06:40:45.820Z,13.40
2023-11-08T06:41:43.402Z,13.39
2023-11-08T06:42:40.092Z,13.43
2023-11-08T06:43:36.866Z,13.30
2023-11-08T06:44:34.432Z,13.34
2023-11-08T06:45:32.066Z,13.43
2023-11-08T06:46:28.664Z,13.50
2023-11-08T06:47:25.483Z,13.33
2023-11-08T06:48:22.648Z,13.28
2023-11-08T06:49:19.673Z,13.20
2023-11-08T06:50:16.640Z,13.13
2023-11-08T06:51:13.586Z,13.13
2023-11-08T06:52:10.529Z,13.12
2023-11-08T06:53:07.191Z,13.09
2023-11-08T06:54:03.999Z,12.93
2023-11-08T06:55:00.820Z,12.85
2023-11-08T06:55:59.225Z,13.03
2023-11-08T06:56:55.851Z,13.24
2023-11-08T06:57:52.599Z,13.04
2023-11-08T06:58:49.341Z,12.96
2023-11-08T06:59:46.614Z,12.90
2023-11-08T07:00:44.213Z,12.92
2023-11-08T07:01:42.605Z,13.18
2023-11-08T07:02:39.296Z,13.06
2023-11-08T07:03:36.025Z,12.94
2023-11-08T07:04:32.961Z,13.39
2023-11-08T07:05:37.958Z,13.59
2023-11-08T07:06:35.949Z,13.29
2023-11-08T07:07:34.165Z,13.26
2023-11-08T07:08:31.103Z,13.33
2023-11-08T07:09:27.778Z,13.24
2023-11-08T07:10:24.404Z,13.18
2023-11-08T07:11:21.024Z,13.13
2023-11-08T07:12:17.782Z,13.04
2023-11-08T07:13:14.427Z,12.89
2023-11-08T07:14:11.330Z,12.64
2023-11-08T07:15:08.841Z,12.59
2023-11-08T07:16:07.800Z,12.67
2023-11-08T07:17:04.843Z,12.53
2023-11-08T07:18:01.860Z,12.71
2023-11-08T07:18:58.883Z,12.67
2023-11-08T07:19:55.591Z,13.00
2023-11-08T07:20:52.318Z,13.19
2023-11-08T07:21:49.088Z,13.14
2023-11-08T07:22:45.692Z,13.01
2023-11-08T07:23:42.283Z,13.16
2023-11-08T07:24:39.046Z,12.75
2023-11-08T07:25:36.045Z,12.83
2023-11-08T07:26:32.704Z,12.40
2023-11-08T07:27:29.479Z,12.53
2023-11-08T07:28:26.142Z,12.69
2023-11-08T07:29:23.590Z,12.60
2023-11-08T07:30:20.424Z,12.51
2023-11-08T07:31:17.321Z,12.28
2023-11-08T07:32:15.745Z,12.27
2023-11-08T07:33:15.775Z,12.55
2023-11-08T07:34:15.370Z,12.43
2023-11-08T07:35:13.518Z,12.20
2023-11-08T07:36:10.282Z,12.04
2023-11-08T07:37:06.941Z,11.87
2023-11-08T07:38:03.657Z,11.93
2023-11-08T07:39:06.077Z,11.83
2023-11-08T07:40:04.015Z,12.08
2023-11-08T07:41:02.660Z,12.22
2023-11-08T07:41:59.992Z,11.92
2023-11-08T07:42:57.152Z,12.08
2023-11-08T07:43:54.179Z,11.97
2023-11-08T07:44:51.486Z,11.89
2023-11-08T07:45:50.816Z,11.93
2023-11-08T07:46:47.467Z,11.98
2023-11-08T07:47:44.707Z,12.17
2023-11-08T07:48:41.613Z,12.01
2023-11-08T07:49:39.522Z,11.84
2023-11-08T07:50:36.164Z,11.87
2023-11-08T07:51:32.844Z,12.01
2023-11-08T07:52:30.044Z,11.90
2023-11-08T07:53:26.825Z,11.73
2023-11-08T07:54:23.443Z,11.68
2023-11-08T07:55:20.077Z,11.70
2023-11-08T07:56:17.004Z,11.66
2023-11-08T07:57:13.597Z,11.67
2023-11-08T07:58:10.282Z,11.75
2023-11-08T07:59:07.239Z,12.08
2023-11-08T08:00:04.386Z,11.84
2023-11-08T08:01:02.292Z,11.66
2023-11-08T08:01:58.978Z,11.59
2023-11-08T08:02:56.128Z,11.80
2023-11-08T08:03:52.849Z,12.04
2023-11-08T08:04:50.255Z,12.29
2023-11-08T08:05:47.122Z,12.21
2023-11-08T08:06:43.848Z,12.23
2023-11-08T08:07:40.894Z,11.85
2023-11-08T08:08:37.567Z,11.76
2023-11-08T08:09:34.268Z,11.65
2023-11-08T08:10:33.385Z,11.59
2023-11-08T08:11:30.096Z,11.61
2023-11-08T08:12:30.903Z,11.85
2023-11-08T08:13:33.252Z,11.73
2023-11-08T08:14:30.431Z,11.72
2023-11-08T08:15:27.164Z,11.64
2023-11-08T08:16:23.884Z,11.59
2023-11-08T08:17:20.970Z,11.69
2023-11-08T08:18:18.993Z,11.92
2023-11-08T08:19:15.820Z,12.19
2023-11-08T08:20:13.077Z,12.14
2023-11-08T08:21:09.758Z,11.85
2023-11-08T08:22:07.155Z,11.63
2023-11-08T08:23:03.974Z,11.74
2023-11-08T08:24:06.951Z,11.66
2023-11-08T08:25:04.941Z,11.78
2023-11-08T08:26:01.676Z,11.56
2023-11-08T08:26:59.243Z,11.86
2023-11-08T08:27:56.668Z,11.85
2023-11-08T08:28:53.361Z,11.83
2023-11-08T08:29:50.015Z,11.98
2023-11-08T08:30:46.838Z,11.97
2023-11-08T08:31:43.502Z,11.86
2023-11-08T08:32:42.284Z,12.00
2023-11-08T08:33:39.018Z,11.95
2023-11-08T08:34:35.778Z,11.98
2023-11-08T08:35:33.669Z,12.23
2023-11-08T08:36:33.155Z,12.09
2023-11-08T08:37:31.028Z,12.12
2023-11-08T08:38:27.848Z,12.04
2023-11-08T08:39:29.001Z,12.04
2023-11-08T08:40:27.054Z,12.04
2023-11-08T08:41:23.802Z,11.96
2023-11-08T08:42:20.626Z,11.96
2023-11-08T08:43:21.457Z,11.99
2023-11-08T08:44:18.986Z,12.11
2023-11-08T08:45:15.761Z,12.25
2023-11-08T08:46:12.392Z,12.51
2023-11-08T08:47:09.095Z,12.49
2023-11-08T08:48:06.025Z,12.31
2023-11-08T08:49:02.977Z,12.18
2023-11-08T08:50:00.294Z,12.16
2023-11-08T08:50:57.036Z,12.37
2023-11-08T08:51:53.966Z,12.18
2023-11-08T08:52:50.710Z,12.14
2023-11-08T08:53:47.448Z,12.13
2023-11-08T08:54:44.212Z,12.11
2023-11-08T08:55:42.170Z,12.34
2023-11-08T08:56:41.230Z,12.28
2023-11-08T08:57:38.442Z,12.33
2023-11-08T08:58:36.756Z,12.53
2023-11-08T08:59:33.692Z,12.74
2023-11-08T09:00:31.468Z,12.78
2023-11-08T09:01:28.209Z,13.06
2023-11-08T09:02:26.619Z,12.83
2023-11-08T09:03:24.286Z,12.74
2023-11-08T09:04:21.337Z,12.87
2023-11-08T09:05:20.541Z,13.04
2023-11-08T09:06:20.730Z,13.12
2023-11-08T09:07:17.457Z,12.90
2023-11-08T09:08:14.128Z,12.80
2023-11-08T09:09:14.777Z,12.80
2023-11-08T09:10:12.065Z,12.62
2023-11-08T09:11:11.582Z,12.82
2023-11-08T09:12:09.052Z,12.82
2023-11-08T09:13:06.618Z,12.63
2023-11-08T09:14:03.995Z,12.65
2023-11-08T09:15:02.724Z,12.65
2023-11-08T09:16:01.874Z,12.68
2023-11-08T09:16:58.774Z,12.70
2023-11-08T09:17:55.518Z,12.37
2023-11-08T09:18:52.342Z,12.51
2023-11-08T09:19:49.318Z,12.36
2023-11-08T09:20:46.044Z,12.29
2023-11-08T09:21:44.177Z,12.36
2023-11-08T09:22:42.378Z,12.48
2023-11-08T09:23:39.807Z,12.52
2023-11-08T09:24:36.544Z,12.52
2023-11-08T09:25:34.779Z,12.44
2023-11-08T09:26:31.546Z,12.60
2023-11-08T09:27:28.214Z,12.68
2023-11-08T09:28:25.323Z,12.74
2023-11-08T09:29:22.089Z,12.73
2023-11-08T09:30:18.867Z,12.43
2023-11-08T09:31:17.877Z,12.66
2023-11-08T09:32:14.725Z,12.71
2023-11-08T09:33:11.707Z,12.75
2023-11-08T09:34:08.728Z,12.50
2023-11-08T09:35:06.167Z,12.55
2023-11-08T09:36:03.055Z,12.77
2023-11-08T09:37:01.647Z,12.62
2023-11-08T09:38:00.040Z,12.69
2023-11-08T09:39:07.927Z,12.62
2023-11-08T09:40:12.197Z,12.64
2023-11-08T09:41:10.152Z,12.68
2023-11-08T09:42:07.471Z,12.73
2023-11-08T09:43:06.418Z,12.59
2023-11-08T09:44:04.413Z,12.76
2023-11-08T09:45:01.636Z,12.38
2023-11-08T09:45:59.161Z,12.45
2023-11-08T09:46:56.993Z,12.59
2023-11-08T09:47:53.798Z,12.68
2023-11-08T09:48:51.663Z,12.70
2023-11-08T09:49:53.871Z,12.79
2023-11-08T09:50:52.774Z,12.82
2023-11-08T09:51:49.918Z,12.62
2023-11-08T09:52:46.631Z,12.56
2023-11-08T09:53:44.477Z,12.73
2023-11-08T09:54:43.207Z,12.80
2023-11-08T09:55:40.025Z,12.71
2023-11-08T09:56:36.778Z,12.59
2023-11-08T09:57:36.607Z,12.73
2023-11-08T09:58:33.777Z,12.68
2023-11-08T09:59:33.135Z,12.72
2023-11-08T10:00:31.849Z,12.83
2023-11-08T10:01:31.245Z,12.81
2023-11-08T10:02:29.727Z,13.02
2023-11-08T10:03:27.218Z,12.99
2023-11-08T10:04:32.124Z,12.49
2023-11-08T10:05:38.307Z,12.59
2023-11-08T10:06:36.369Z,12.66
2023-11-08T10:07:33.728Z,12.93
2023-11-08T10:08:30.618Z,12.82
2023-11-08T10:09:32.682Z,12.85
2023-11-08T10:10:30.131Z,12.83
2023-11-08T10:12:27.057Z,12.78
2023-11-08T10:13:41.809Z,12.84
2023-11-08T10:14:44.653Z,12.88
2023-11-08T10:15:41.323Z,12.88
2023-11-08T10:16:55.242Z,13.01
2023-11-08T10:19:31.788Z,12.87
2023-11-08T10:19:37.228Z,12.85
2023-11-08T10:20:36.707Z,12.58
2023-11-08T10:21:34.205Z,12.65
2023-11-08T10:22:31.288Z,12.66
2023-11-08T10:23:30.085Z,12.94
2023-11-08T10:24:26.868Z,12.65
2023-11-08T10:25:27.302Z,12.59
2023-11-08T10:26:26.739Z,12.77
2023-11-08T10:27:24.610Z,12.75
2023-11-08T10:28:22.038Z,12.67
2023-11-08T10:29:20.443Z,12.87
2023-11-08T10:30:20.265Z,12.83
2023-11-08T10:31:30.970Z,12.69
2023-11-08T10:32:27.792Z,12.62
2023-11-08T10:33:24.483Z,12.70
2023-11-08T10:34:26.240Z,12.58
2023-11-08T10:35:23.367Z,12.65
2023-11-08T10:36:31.993Z,12.87
2023-11-08T10:37:29.917Z,12.71
2023-11-08T10:38:26.540Z,12.65
2023-11-08T10:39:23.270Z,12.67
2023-11-08T10:40:22.506Z,12.76
2023-11-08T10:41:19.302Z,12.77
2023-11-08T10:42:16.113Z,12.67
2023-11-08T10:43:22.062Z,12.62
2023-11-08T10:44:26.546Z,12.40
2023-11-08T10:45:24.988Z,12.39
2023-11-08T10:46:22.556Z,12.40
2023-11-08T10:47:19.386Z,12.54
2023-11-08T10:48:16.580Z,12.54
2023-11-08T10:49:13.312Z,12.42
2023-11-08T10:50:10.264Z,12.19
2023-11-08T10:51:06.996Z,12.25
2023-11-08T10:52:05.073Z,12.29
2023-11-08T10:53:01.868Z,12.49
2023-11-08T10:53:58.791Z,12.56
2023-11-08T10:54:55.457Z,12.59
2023-11-08T10:55:56.628Z,12.60
2023-11-08T10:56:55.989Z,12.63
2023-11-08T10:58:02.410Z,12.61
2023-11-08T10:59:04.143Z,12.54
2023-11-08T11:00:02.387Z,12.44
2023-11-08T11:01:03.864Z,12.43
2023-11-08T11:02:00.689Z,12.24
2023-11-08T11:03:06.818Z,12.31
2023-11-08T11:04:07.230Z,12.58
2023-11-08T11:05:05.489Z,12.55
2023-11-08T11:06:04.820Z,12.45
2023-11-08T11:07:02.818Z,12.36
2023-11-08T11:08:01.856Z,12.36
2023-11-08T11:08:59.508Z,12.31
2023-11-08T11:09:56.454Z,12.34
2023-11-08T11:10:53.328Z,12.37
2023-11-08T11:12:00.205Z,12.42
2023-11-08T11:13:06.300Z,12.67
2023-11-08T11:14:14.699Z,12.51
2023-11-08T11:15:21.371Z,12.29
2023-11-08T11:16:31.491Z,12.23
2023-11-08T11:17:35.903Z,12.35
2023-11-08T11:18:41.023Z,12.17
2023-11-08T11:19:42.812Z,12.01
2023-11-08T11:20:45.989Z,12.09
2023-11-08T11:21:50.291Z,11.97
2023-11-08T11:22:47.033Z,11.96
2023-11-08T11:23:43.698Z,12.10
2023-11-08T11:24:43.569Z,12.16
2023-11-08T11:25:48.733Z,12.05
2023-11-08T11:26:47.479Z,11.84
2023-11-08T11:27:45.546Z,11.94
2023-11-08T11:28:56.481Z,11.61
2023-11-08T11:30:16.318Z,11.75
2023-11-08T11:31:44.618Z,11.54
2023-11-08T11:32:51.169Z,11.68
2023-11-08T11:33:48.041Z,11.67
2023-11-08T11:34:45.478Z,11.54
2023-11-08T11:35:51.455Z,11.45
2023-11-08T11:37:14.881Z,11.88
2023-11-08T11:38:25.098Z,12.07
2023-11-08T11:39:24.042Z,12.08
2023-11-08T11:40:20.771Z,12.09
2023-11-08T11:41:24.324Z,12.10
2023-11-08T11:42:27.317Z,11.97
2023-11-08T11:43:39.717Z,11.97
2023-11-08T11:44:37.823Z,12.06
2023-11-08T11:45:34.571Z,12.02
2023-11-08T11:46:31.406Z,12.19
2023-11-08T11:47:30.347Z,12.12
2023-11-08T11:48:33.452Z,12.28
2023-11-08T11:49:30.242Z,12.10
2023-11-08T11:50:28.456Z,11.85
2023-11-08T11:51:25.177Z,11.67
2023-11-08T11:52:23.445Z,11.75
2023-11-08T11:53:20.119Z,11.52
2023-11-08T11:54:17.084Z,11.33
2023-11-08T11:55:16.086Z,11.09
2023-11-08T11:56:12.745Z,11.19
2023-11-08T11:57:10.368Z,10.93
2023-11-08T11:58:11.051Z,11.02
2023-11-08T11:59:10.200Z,10.93
2023-11-08T12:00:11.002Z,10.88
2023-11-08T12:01:07.910Z,10.98
2023-11-08T12:02:04.988Z,11.16
2023-11-08T12:03:02.008Z,11.30
2023-11-08T12:04:00.425Z,11.10
2023-11-08T12:05:00.361Z,11.06
2023-11-08T12:05:57.906Z,10.88
2023-11-08T12:06:56.431Z,10.89
2023-11-08T12:07:54.092Z,10.94
2023-11-08T12:08:50.869Z,10.97
2023-11-08T12:09:49.637Z,10.93
2023-11-08T12:10:46.435Z,11.03
2023-11-08T12:11:49.548Z,10.88
2023-11-08T12:12:46.418Z,10.69
2023-11-08T12:13:54.510Z,10.78
2023-11-08T12:14:51.231Z,10.77
2023-11-08T12:16:00.707Z,10.80
2023-11-08T12:16:57.564Z,10.76
2023-11-08T12:17:55.226Z,11.09
2023-11-08T12:18:53.022Z,10.87
2023-11-08T12:19:50.482Z,10.71
2023-11-08T12:20:47.351Z,10.64
2023-11-08T12:21:48.640Z,10.61
2023-11-08T12:22:49.563Z,10.53
2023-11-08T12:23:50.648Z,10.76
2023-11-08T12:24:50.441Z,10.61
2023-11-08T12:25:48.097Z,10.71
2023-11-08T12:26:44.884Z,10.54
2023-11-08T12:27:41.833Z,10.56
2023-11-08T12:28:39.511Z,10.65
2023-11-08T12:29:36.600Z,10.62
2023-11-08T12:30:34.979Z,10.65